sensor_id;sensor_type;location;lat;lon;timestamp;temperature;humidity
23267;DHT22;11802;53.160;8.214;2023-12-29T00:02:10;10.50;1.00
23267;DHT22;11802;53.160;8.214;2023-12-29T00:04:35;10.50;1.00
23267;DHT22;11802;53.160;8.214;2023-12-29T00:07:02;10.40;1.00
23267;DHT22;11802;53.160;8.214;2023-12-29T00:09:28;10.50;1.00
23267;DHT22;11802;53.160;8.214;2023-12-29T00:11:53;10.50;1.00
23267;DHT22;11802;53.160;8.214;2023-12-29T00:14:19;10.50;1.00
23267;DHT22;11802;53.160;8.214;2023-12-29T00:16:45;10.50;1.00
23267;DHT22;11802;53.160;8.214;2023-12-29T00:19:12;10.50;1.00
23267;DHT22;11802;53.160;8.214;2023-12-29T00:21:37;10.50;1.00
23267;DHT22;11802;53.160;8.214;2023-12-29T00:24:04;10.50;1.00
23267;DHT22;11802;53.160;8.214;2023-12-29T00:26:30;10.40;1.00
23267;DHT22;11802;53.160;8.214;2023-12-29T00:28:55;10.40;1.00
23267;DHT22;11802;53.160;8.214;2023-12-29T00:31:21;10.30;1.00
23267;DHT22;11802;53.160;8.214;2023-12-29T00:33:46;10.30;1.00
23267;DHT22;11802;53.160;8.214;2023-12-29T00:36:16;10.30;1.00
23267;DHT22;11802;53.160;8.214;2023-12-29T00:38:41;10.30;1.00
23267;DHT22;11802;53.160;8.214;2023-12-29T00:41:07;10.30;1.00
23267;DHT22;11802;53.160;8.214;2023-12-29T00:43:33;10.30;1.00
23267;DHT22;11802;53.160;8.214;2023-12-29T00:46:00;10.40;1.00
23267;DHT22;11802;53.160;8.214;2023-12-29T00:48:26;10.30;1.00
23267;DHT22;11802;53.160;8.214;2023-12-29T00:50:51;10.30;1.00
23267;DHT22;11802;53.160;8.214;2023-12-29T00:53:17;10.20;35.70
23267;DHT22;11802;53.160;8.214;2023-12-29T00:55:43;10.30;38.90
23267;DHT22;11802;53.160;8.214;2023-12-29T00:58:08;10.20;31.40
23267;DHT22;11802;53.160;8.214;2023-12-29T01:00:34;10.30;18.00
23267;DHT22;11802;53.160;8.214;2023-12-29T01:02:59;10.20;5.70
23267;DHT22;11802;53.160;8.214;2023-12-29T01:05:25;10.20;55.60
23267;DHT22;11802;53.160;8.214;2023-12-29T01:07:51;10.20;35.80
23267;DHT22;11802;53.160;8.214;2023-12-29T01:10:17;10.20;21.80
23267;DHT22;11802;53.160;8.214;2023-12-29T01:12:42;10.20;10.70
23267;DHT22;11802;53.160;8.214;2023-12-29T01:15:08;10.20;26.00
23267;DHT22;11802;53.160;8.214;2023-12-29T01:17:34;10.20;20.30
23267;DHT22;11802;53.160;8.214;2023-12-29T01:19:59;10.20;9.20
23267;DHT22;11802;53.160;8.214;2023-12-29T01:22:25;10.20;1.00
23267;DHT22;11802;53.160;8.214;2023-12-29T01:24:50;10.20;1.00
23267;DHT22;11802;53.160;8.214;2023-12-29T01:27:16;10.30;1.00
23267;DHT22;11802;53.160;8.214;2023-12-29T01:29:42;10.20;1.00
23267;DHT22;11802;53.160;8.214;2023-12-29T01:32:07;10.30;1.00
23267;DHT22;11802;53.160;8.214;2023-12-29T01:34:33;10.20;1.00
23267;DHT22;11802;53.160;8.214;2023-12-29T01:37:01;10.30;1.00
23267;DHT22;11802;53.160;8.214;2023-12-29T01:39:27;10.20;5.90
23267;DHT22;11802;53.160;8.214;2023-12-29T01:41:55;10.20;71.90
23267;DHT22;11802;53.160;8.214;2023-12-29T01:44:22;10.10;70.00
23267;DHT22;11802;53.160;8.214;2023-12-29T01:46:50;10.10;99.90
23267;DHT22;11802;53.160;8.214;2023-12-29T01:49:17;10.10;99.90
23267;DHT22;11802;53.160;8.214;2023-12-29T01:51:44;10.00;99.90
23267;DHT22;11802;53.160;8.214;2023-12-29T01:54:11;9.90;99.90
23267;DHT22;11802;53.160;8.214;2023-12-29T01:56:37;9.90;56.60
23267;DHT22;11802;53.160;8.214;2023-12-29T01:59:03;9.80;59.60
23267;DHT22;11802;53.160;8.214;2023-12-29T02:01:29;9.80;59.80
23267;DHT22;11802;53.160;8.214;2023-12-29T02:03:56;9.80;96.40
23267;DHT22;11802;53.160;8.214;2023-12-29T02:06:22;9.80;99.90
23267;DHT22;11802;53.160;8.214;2023-12-29T02:08:49;9.80;99.90
23267;DHT22;11802;53.160;8.214;2023-12-29T02:11:16;9.80;99.90
23267;DHT22;11802;53.160;8.214;2023-12-29T02:13:42;9.70;99.90
23267;DHT22;11802;53.160;8.214;2023-12-29T02:18:54;9.70;99.90
23267;DHT22;11802;53.160;8.214;2023-12-29T02:21:25;9.70;99.90
23267;DHT22;11802;53.160;8.214;2023-12-29T02:23:51;9.70;99.90
23267;DHT22;11802;53.160;8.214;2023-12-29T02:26:20;9.60;99.90
23267;DHT22;11802;53.160;8.214;2023-12-29T02:28:55;9.60;99.90
23267;DHT22;11802;53.160;8.214;2023-12-29T02:31:24;9.60;99.90
23267;DHT22;11802;53.160;8.214;2023-12-29T02:33:53;9.50;99.90
23267;DHT22;11802;53.160;8.214;2023-12-29T02:36:19;9.50;99.90
23267;DHT22;11802;53.160;8.214;2023-12-29T02:38:46;9.50;99.90
23267;DHT22;11802;53.160;8.214;2023-12-29T02:41:12;9.50;99.90
23267;DHT22;11802;53.160;8.214;2023-12-29T02:43:38;9.50;99.90
23267;DHT22;11802;53.160;8.214;2023-12-29T02:46:04;9.50;99.90
23267;DHT22;11802;53.160;8.214;2023-12-29T02:48:30;9.50;99.90
23267;DHT22;11802;53.160;8.214;2023-12-29T02:50:55;9.50;99.90
23267;DHT22;11802;53.160;8.214;2023-12-29T02:53:21;9.50;99.90
23267;DHT22;11802;53.160;8.214;2023-12-29T02:55:46;9.50;99.90
23267;DHT22;11802;53.160;8.214;2023-12-29T02:58:12;9.50;99.90
23267;DHT22;11802;53.160;8.214;2023-12-29T03:00:37;9.50;99.90
23267;DHT22;11802;53.160;8.214;2023-12-29T03:03:03;9.50;99.90
23267;DHT22;11802;53.160;8.214;2023-12-29T03:05:29;9.50;99.90
23267;DHT22;11802;53.160;8.214;2023-12-29T03:07:54;9.50;99.90
23267;DHT22;11802;53.160;8.214;2023-12-29T03:10:20;9.50;99.90
23267;DHT22;11802;53.160;8.214;2023-12-29T03:12:45;9.50;99.90
23267;DHT22;11802;53.160;8.214;2023-12-29T03:15:11;9.50;99.90
23267;DHT22;11802;53.160;8.214;2023-12-29T03:17:36;8.80;99.90
23267;DHT22;11802;53.160;8.214;2023-12-29T03:20:03;7.70;99.90
23267;DHT22;11802;53.160;8.214;2023-12-29T03:22:30;7.00;99.90
23267;DHT22;11802;53.160;8.214;2023-12-29T03:24:55;6.60;99.90
23267;DHT22;11802;53.160;8.214;2023-12-29T03:27:21;6.30;99.90
23267;DHT22;11802;53.160;8.214;2023-12-29T03:29:46;6.20;99.90
23267;DHT22;11802;53.160;8.214;2023-12-29T03:32:12;6.20;99.90
23267;DHT22;11802;53.160;8.214;2023-12-29T03:34:37;6.20;99.90
23267;DHT22;11802;53.160;8.214;2023-12-29T03:37:03;6.30;99.90
23267;DHT22;11802;53.160;8.214;2023-12-29T03:39:29;6.50;99.90
23267;DHT22;11802;53.160;8.214;2023-12-29T03:41:55;6.60;99.90
23267;DHT22;11802;53.160;8.214;2023-12-29T03:44:20;6.70;99.90
23267;DHT22;11802;53.160;8.214;2023-12-29T03:46:46;6.80;99.90
23267;DHT22;11802;53.160;8.214;2023-12-29T03:49:12;6.90;99.90
23267;DHT22;11802;53.160;8.214;2023-12-29T03:51:38;7.00;99.90
23267;DHT22;11802;53.160;8.214;2023-12-29T03:54:03;7.00;99.90
23267;DHT22;11802;53.160;8.214;2023-12-29T03:56:29;7.10;99.90
23267;DHT22;11802;53.160;8.214;2023-12-29T03:58:54;7.20;99.90
23267;DHT22;11802;53.160;8.214;2023-12-29T04:01:20;7.40;99.90
23267;DHT22;11802;53.160;8.214;2023-12-29T04:03:46;7.50;99.90
23267;DHT22;11802;53.160;8.214;2023-12-29T04:06:11;7.60;99.90
23267;DHT22;11802;53.160;8.214;2023-12-29T04:08:38;7.60;99.90
23267;DHT22;11802;53.160;8.214;2023-12-29T04:11:04;7.70;99.90
23267;DHT22;11802;53.160;8.214;2023-12-29T04:13:30;7.80;99.90
23267;DHT22;11802;53.160;8.214;2023-12-29T04:15:57;7.80;99.90
23267;DHT22;11802;53.160;8.214;2023-12-29T04:18:23;7.90;99.90
23267;DHT22;11802;53.160;8.214;2023-12-29T04:20:49;8.00;99.90
23267;DHT22;11802;53.160;8.214;2023-12-29T04:23:15;8.00;99.90
23267;DHT22;11802;53.160;8.214;2023-12-29T04:25:41;8.00;99.90
23267;DHT22;11802;53.160;8.214;2023-12-29T04:28:07;8.00;99.90
23267;DHT22;11802;53.160;8.214;2023-12-29T04:30:33;8.10;99.90
23267;DHT22;11802;53.160;8.214;2023-12-29T04:32:59;8.20;99.90
23267;DHT22;11802;53.160;8.214;2023-12-29T04:35:24;8.30;99.90
23267;DHT22;11802;53.160;8.214;2023-12-29T04:37:50;8.20;99.90
23267;DHT22;11802;53.160;8.214;2023-12-29T04:40:16;8.30;99.90
23267;DHT22;11802;53.160;8.214;2023-12-29T04:42:42;8.40;99.90
23267;DHT22;11802;53.160;8.214;2023-12-29T04:45:09;8.60;99.90
23267;DHT22;11802;53.160;8.214;2023-12-29T04:47:35;8.60;99.90
23267;DHT22;11802;53.160;8.214;2023-12-29T04:50:01;8.70;99.90
23267;DHT22;11802;53.160;8.214;2023-12-29T04:52:27;8.80;99.90
23267;DHT22;11802;53.160;8.214;2023-12-29T04:54:52;8.90;99.90
23267;DHT22;11802;53.160;8.214;2023-12-29T04:57:18;8.90;99.90
23267;DHT22;11802;53.160;8.214;2023-12-29T04:59:43;9.00;99.90
23267;DHT22;11802;53.160;8.214;2023-12-29T05:02:09;9.00;99.90
23267;DHT22;11802;53.160;8.214;2023-12-29T05:04:35;9.00;99.90
23267;DHT22;11802;53.160;8.214;2023-12-29T05:07:00;9.00;99.90
23267;DHT22;11802;53.160;8.214;2023-12-29T05:09:26;9.00;99.90
23267;DHT22;11802;53.160;8.214;2023-12-29T05:11:51;9.00;99.90
23267;DHT22;11802;53.160;8.214;2023-12-29T05:14:17;9.00;99.90
23267;DHT22;11802;53.160;8.214;2023-12-29T05:16:44;9.00;99.90
23267;DHT22;11802;53.160;8.214;2023-12-29T05:19:09;9.10;99.90
23267;DHT22;11802;53.160;8.214;2023-12-29T05:21:35;9.10;99.90
23267;DHT22;11802;53.160;8.214;2023-12-29T05:24:01;9.00;99.90
23267;DHT22;11802;53.160;8.214;2023-12-29T05:26:26;9.00;99.90
23267;DHT22;11802;53.160;8.214;2023-12-29T05:28:52;9.00;99.90
23267;DHT22;11802;53.160;8.214;2023-12-29T05:31:17;8.90;99.90
23267;DHT22;11802;53.160;8.214;2023-12-29T05:33:44;9.00;99.90
23267;DHT22;11802;53.160;8.214;2023-12-29T05:36:11;9.00;99.90
23267;DHT22;11802;53.160;8.214;2023-12-29T05:38:37;9.00;99.90
23267;DHT22;11802;53.160;8.214;2023-12-29T05:41:03;9.00;99.90
23267;DHT22;11802;53.160;8.214;2023-12-29T05:43:31;9.00;99.90
23267;DHT22;11802;53.160;8.214;2023-12-29T05:45:57;9.10;99.90
23267;DHT22;11802;53.160;8.214;2023-12-29T05:48:23;9.10;99.90
23267;DHT22;11802;53.160;8.214;2023-12-29T05:50:52;9.10;99.90
23267;DHT22;11802;53.160;8.214;2023-12-29T05:53:18;9.20;99.90
23267;DHT22;11802;53.160;8.214;2023-12-29T05:55:44;9.30;99.90
23267;DHT22;11802;53.160;8.214;2023-12-29T05:58:11;9.20;99.90
23267;DHT22;11802;53.160;8.214;2023-12-29T06:00:37;9.20;99.90
23267;DHT22;11802;53.160;8.214;2023-12-29T06:03:02;9.20;99.90
23267;DHT22;11802;53.160;8.214;2023-12-29T06:05:29;9.10;99.90
23267;DHT22;11802;53.160;8.214;2023-12-29T06:07:55;9.10;99.90
23267;DHT22;11802;53.160;8.214;2023-12-29T06:10:21;9.10;99.90
23267;DHT22;11802;53.160;8.214;2023-12-29T06:12:47;9.10;99.90
23267;DHT22;11802;53.160;8.214;2023-12-29T06:15:13;9.10;99.90
23267;DHT22;11802;53.160;8.214;2023-12-29T06:17:39;9.10;99.90
23267;DHT22;11802;53.160;8.214;2023-12-29T06:20:06;9.10;99.90
23267;DHT22;11802;53.160;8.214;2023-12-29T06:22:32;9.10;99.90
23267;DHT22;11802;53.160;8.214;2023-12-29T06:24:58;9.10;99.90
23267;DHT22;11802;53.160;8.214;2023-12-29T06:27:25;9.10;99.90
23267;DHT22;11802;53.160;8.214;2023-12-29T06:29:50;9.10;99.90
23267;DHT22;11802;53.160;8.214;2023-12-29T06:32:16;9.10;99.90
23267;DHT22;11802;53.160;8.214;2023-12-29T06:34:41;9.10;99.90
23267;DHT22;11802;53.160;8.214;2023-12-29T06:37:07;9.20;99.90
23267;DHT22;11802;53.160;8.214;2023-12-29T06:39:33;9.20;99.90
23267;DHT22;11802;53.160;8.214;2023-12-29T06:41:58;9.20;99.90
23267;DHT22;11802;53.160;8.214;2023-12-29T06:44:24;9.20;99.90
23267;DHT22;11802;53.160;8.214;2023-12-29T06:46:50;9.20;99.90
23267;DHT22;11802;53.160;8.214;2023-12-29T06:49:15;9.30;99.90
23267;DHT22;11802;53.160;8.214;2023-12-29T06:51:41;9.20;99.90
23267;DHT22;11802;53.160;8.214;2023-12-29T06:54:07;9.30;99.90
23267;DHT22;11802;53.160;8.214;2023-12-29T06:56:32;9.30;99.90
23267;DHT22;11802;53.160;8.214;2023-12-29T06:58:58;9.30;99.90
23267;DHT22;11802;53.160;8.214;2023-12-29T07:01:23;9.30;99.90
23267;DHT22;11802;53.160;8.214;2023-12-29T07:03:49;9.40;99.90
23267;DHT22;11802;53.160;8.214;2023-12-29T07:06:15;9.30;99.90
23267;DHT22;11802;53.160;8.214;2023-12-29T07:08:41;9.20;99.90
23267;DHT22;11802;53.160;8.214;2023-12-29T07:11:10;9.10;99.90
23267;DHT22;11802;53.160;8.214;2023-12-29T07:13:37;9.10;99.90
23267;DHT22;11802;53.160;8.214;2023-12-29T07:16:03;9.00;99.90
23267;DHT22;11802;53.160;8.214;2023-12-29T07:18:28;8.90;99.90
23267;DHT22;11802;53.160;8.214;2023-12-29T07:20:54;8.90;99.90
23267;DHT22;11802;53.160;8.214;2023-12-29T07:23:19;8.90;99.90
23267;DHT22;11802;53.160;8.214;2023-12-29T07:25:46;8.90;99.90
23267;DHT22;11802;53.160;8.214;2023-12-29T07:28:12;8.90;99.90
23267;DHT22;11802;53.160;8.214;2023-12-29T07:30:38;9.00;99.90
23267;DHT22;11802;53.160;8.214;2023-12-29T07:33:03;9.00;99.90
23267;DHT22;11802;53.160;8.214;2023-12-29T07:35:29;9.00;99.90
23267;DHT22;11802;53.160;8.214;2023-12-29T07:37:55;9.00;99.90
23267;DHT22;11802;53.160;8.214;2023-12-29T07:40:20;9.10;99.90
23267;DHT22;11802;53.160;8.214;2023-12-29T07:42:46;9.10;99.90
23267;DHT22;11802;53.160;8.214;2023-12-29T07:45:15;9.00;99.90
23267;DHT22;11802;53.160;8.214;2023-12-29T07:47:41;9.10;99.90
23267;DHT22;11802;53.160;8.214;2023-12-29T07:50:07;9.10;99.90
23267;DHT22;11802;53.160;8.214;2023-12-29T07:52:32;9.10;99.90
23267;DHT22;11802;53.160;8.214;2023-12-29T07:54:58;9.10;99.90
23267;DHT22;11802;53.160;8.214;2023-12-29T07:57:24;9.10;99.90
23267;DHT22;11802;53.160;8.214;2023-12-29T07:59:51;9.10;99.90
23267;DHT22;11802;53.160;8.214;2023-12-29T08:02:17;9.20;99.90
23267;DHT22;11802;53.160;8.214;2023-12-29T08:04:42;9.20;99.90
23267;DHT22;11802;53.160;8.214;2023-12-29T08:07:10;9.20;99.90
23267;DHT22;11802;53.160;8.214;2023-12-29T08:09:36;9.30;99.90
23267;DHT22;11802;53.160;8.214;2023-12-29T08:12:01;9.30;99.90
23267;DHT22;11802;53.160;8.214;2023-12-29T08:14:27;9.20;99.90
23267;DHT22;11802;53.160;8.214;2023-12-29T08:16:53;9.30;99.90
23267;DHT22;11802;53.160;8.214;2023-12-29T08:19:19;9.20;99.90
23267;DHT22;11802;53.160;8.214;2023-12-29T08:21:44;9.30;99.90
23267;DHT22;11802;53.160;8.214;2023-12-29T08:24:10;9.30;99.90
23267;DHT22;11802;53.160;8.214;2023-12-29T08:26:44;9.30;99.90
23267;DHT22;11802;53.160;8.214;2023-12-29T08:29:11;9.30;99.90
23267;DHT22;11802;53.160;8.214;2023-12-29T08:31:36;9.30;99.90
23267;DHT22;11802;53.160;8.214;2023-12-29T08:34:02;9.30;99.90
23267;DHT22;11802;53.160;8.214;2023-12-29T08:36:27;9.30;99.90
23267;DHT22;11802;53.160;8.214;2023-12-29T08:38:53;9.30;99.90
23267;DHT22;11802;53.160;8.214;2023-12-29T08:41:18;9.30;99.90
23267;DHT22;11802;53.160;8.214;2023-12-29T08:43:44;9.30;99.90
23267;DHT22;11802;53.160;8.214;2023-12-29T08:46:10;9.20;99.90
23267;DHT22;11802;53.160;8.214;2023-12-29T08:48:35;9.20;99.90
23267;DHT22;11802;53.160;8.214;2023-12-29T08:51:01;9.10;99.90
23267;DHT22;11802;53.160;8.214;2023-12-29T08:53:26;9.00;99.90
23267;DHT22;11802;53.160;8.214;2023-12-29T08:55:52;9.00;99.90
23267;DHT22;11802;53.160;8.214;2023-12-29T08:58:18;9.00;99.90
23267;DHT22;11802;53.160;8.214;2023-12-29T09:00:43;9.00;99.90
23267;DHT22;11802;53.160;8.214;2023-12-29T09:03:09;9.00;99.90
23267;DHT22;11802;53.160;8.214;2023-12-29T09:05:34;9.00;99.90
23267;DHT22;11802;53.160;8.214;2023-12-29T09:08:00;9.00;99.90
23267;DHT22;11802;53.160;8.214;2023-12-29T09:10:26;9.00;99.90
23267;DHT22;11802;53.160;8.214;2023-12-29T09:12:51;9.00;99.90
23267;DHT22;11802;53.160;8.214;2023-12-29T09:15:17;9.10;99.90
23267;DHT22;11802;53.160;8.214;2023-12-29T09:17:42;9.10;99.90
23267;DHT22;11802;53.160;8.214;2023-12-29T09:20:09;9.20;99.90
23267;DHT22;11802;53.160;8.214;2023-12-29T09:22:34;9.20;99.90
23267;DHT22;11802;53.160;8.214;2023-12-29T09:25:00;9.20;99.90
23267;DHT22;11802;53.160;8.214;2023-12-29T09:27:25;9.20;99.90
23267;DHT22;11802;53.160;8.214;2023-12-29T09:29:51;9.30;99.90
23267;DHT22;11802;53.160;8.214;2023-12-29T09:32:16;9.30;99.90
23267;DHT22;11802;53.160;8.214;2023-12-29T09:34:42;9.30;99.90
23267;DHT22;11802;53.160;8.214;2023-12-29T09:37:08;9.30;99.90
23267;DHT22;11802;53.160;8.214;2023-12-29T09:39:34;9.40;99.90
23267;DHT22;11802;53.160;8.214;2023-12-29T09:41:59;9.50;99.90
23267;DHT22;11802;53.160;8.214;2023-12-29T09:44:27;9.50;99.90
23267;DHT22;11802;53.160;8.214;2023-12-29T09:46:54;9.50;99.90
23267;DHT22;11802;53.160;8.214;2023-12-29T09:49:21;9.50;99.90
23267;DHT22;11802;53.160;8.214;2023-12-29T09:51:47;9.60;99.90
23267;DHT22;11802;53.160;8.214;2023-12-29T09:54:14;9.60;99.90
23267;DHT22;11802;53.160;8.214;2023-12-29T09:56:41;9.60;99.90
23267;DHT22;11802;53.160;8.214;2023-12-29T09:59:09;9.60;99.90
23267;DHT22;11802;53.160;8.214;2023-12-29T10:01:37;9.50;99.90
23267;DHT22;11802;53.160;8.214;2023-12-29T10:04:02;9.50;99.90
23267;DHT22;11802;53.160;8.214;2023-12-29T10:06:33;9.50;99.90
23267;DHT22;11802;53.160;8.214;2023-12-29T10:09:03;9.50;99.90
23267;DHT22;11802;53.160;8.214;2023-12-29T10:11:34;9.50;99.90
23267;DHT22;11802;53.160;8.214;2023-12-29T10:16:53;9.50;99.90
23267;DHT22;11802;53.160;8.214;2023-12-29T10:24:30;9.50;99.90
23267;DHT22;11802;53.160;8.214;2023-12-29T10:26:56;9.50;99.90
23267;DHT22;11802;53.160;8.214;2023-12-29T10:29:22;9.50;99.90
23267;DHT22;11802;53.160;8.214;2023-12-29T10:31:49;9.40;99.90
23267;DHT22;11802;53.160;8.214;2023-12-29T10:34:24;9.50;99.90
23267;DHT22;11802;53.160;8.214;2023-12-29T10:36:57;9.50;99.90
23267;DHT22;11802;53.160;8.214;2023-12-29T10:39:23;9.50;99.90
23267;DHT22;11802;53.160;8.214;2023-12-29T10:41:50;9.60;99.90
23267;DHT22;11802;53.160;8.214;2023-12-29T10:44:16;9.60;99.90
23267;DHT22;11802;53.160;8.214;2023-12-29T10:46:42;9.60;99.90
23267;DHT22;11802;53.160;8.214;2023-12-29T10:49:09;9.70;99.90
23267;DHT22;11802;53.160;8.214;2023-12-29T10:51:35;9.70;99.90
23267;DHT22;11802;53.160;8.214;2023-12-29T10:54:01;9.70;99.90
23267;DHT22;11802;53.160;8.214;2023-12-29T10:56:26;9.70;99.90
23267;DHT22;11802;53.160;8.214;2023-12-29T10:59:00;9.60;99.90
23267;DHT22;11802;53.160;8.214;2023-12-29T11:01:25;9.50;99.90
23267;DHT22;11802;53.160;8.214;2023-12-29T11:04:05;9.50;99.90
23267;DHT22;11802;53.160;8.214;2023-12-29T11:06:42;9.50;99.90
23267;DHT22;11802;53.160;8.214;2023-12-29T11:09:10;9.50;99.90
23267;DHT22;11802;53.160;8.214;2023-12-29T11:11:37;9.50;99.90
23267;DHT22;11802;53.160;8.214;2023-12-29T11:14:03;9.50;99.90
23267;DHT22;11802;53.160;8.214;2023-12-29T11:16:30;9.40;99.90
23267;DHT22;11802;53.160;8.214;2023-12-29T11:18:58;9.40;99.90
23267;DHT22;11802;53.160;8.214;2023-12-29T11:21:26;9.40;99.90
23267;DHT22;11802;53.160;8.214;2023-12-29T11:23:52;9.40;99.90
23267;DHT22;11802;53.160;8.214;2023-12-29T11:26:18;9.40;99.90
23267;DHT22;11802;53.160;8.214;2023-12-29T11:28:46;9.40;99.90
23267;DHT22;11802;53.160;8.214;2023-12-29T11:31:17;9.40;99.90
23267;DHT22;11802;53.160;8.214;2023-12-29T11:33:52;9.40;99.90
23267;DHT22;11802;53.160;8.214;2023-12-29T11:36:24;9.40;99.90
23267;DHT22;11802;53.160;8.214;2023-12-29T11:39:17;9.40;99.90
23267;DHT22;11802;53.160;8.214;2023-12-29T11:44:30;9.50;99.90
23267;DHT22;11802;53.160;8.214;2023-12-29T11:46:56;9.50;99.90
23267;DHT22;11802;53.160;8.214;2023-12-29T11:49:23;9.50;99.90
23267;DHT22;11802;53.160;8.214;2023-12-29T11:51:50;9.60;99.90
23267;DHT22;11802;53.160;8.214;2023-12-29T11:54:25;9.60;99.90
23267;DHT22;11802;53.160;8.214;2023-12-29T11:56:52;9.70;99.90
23267;DHT22;11802;53.160;8.214;2023-12-29T11:59:20;9.70;99.90
23267;DHT22;11802;53.160;8.214;2023-12-29T12:01:54;9.80;99.90
23267;DHT22;11802;53.160;8.214;2023-12-29T12:07:02;9.80;99.90
23267;DHT22;11802;53.160;8.214;2023-12-29T12:09:28;9.80;99.90
23267;DHT22;11802;53.160;8.214;2023-12-29T12:11:53;9.80;99.90
23267;DHT22;11802;53.160;8.214;2023-12-29T12:17:10;9.80;99.90
23267;DHT22;11802;53.160;8.214;2023-12-29T12:19:36;9.70;99.90
23267;DHT22;11802;53.160;8.214;2023-12-29T12:22:02;9.70;99.90
23267;DHT22;11802;53.160;8.214;2023-12-29T12:24:28;9.70;99.90
23267;DHT22;11802;53.160;8.214;2023-12-29T12:26:57;9.80;99.90
23267;DHT22;11802;53.160;8.214;2023-12-29T12:29:23;9.80;99.90
23267;DHT22;11802;53.160;8.214;2023-12-29T12:31:56;9.70;99.90
23267;DHT22;11802;53.160;8.214;2023-12-29T12:34:22;9.70;99.90
23267;DHT22;11802;53.160;8.214;2023-12-29T12:36:51;9.60;99.90
23267;DHT22;11802;53.160;8.214;2023-12-29T12:39:17;9.60;99.90
23267;DHT22;11802;53.160;8.214;2023-12-29T12:41:43;9.60;99.90
23267;DHT22;11802;53.160;8.214;2023-12-29T12:44:13;9.60;99.90
23267;DHT22;11802;53.160;8.214;2023-12-29T12:46:51;9.60;99.90
23267;DHT22;11802;53.160;8.214;2023-12-29T12:49:22;9.50;99.90
23267;DHT22;11802;53.160;8.214;2023-12-29T12:51:48;9.50;99.90
23267;DHT22;11802;53.160;8.214;2023-12-29T12:54:17;9.60;99.90
23267;DHT22;11802;53.160;8.214;2023-12-29T12:56:45;9.70;99.90
23267;DHT22;11802;53.160;8.214;2023-12-29T12:59:12;9.80;99.90
23267;DHT22;11802;53.160;8.214;2023-12-29T13:01:38;9.90;99.90
23267;DHT22;11802;53.160;8.214;2023-12-29T13:04:04;10.00;99.90
23267;DHT22;11802;53.160;8.214;2023-12-29T13:06:32;10.10;99.90
23267;DHT22;11802;53.160;8.214;2023-12-29T13:08:59;10.10;99.90
23267;DHT22;11802;53.160;8.214;2023-12-29T13:11:25;10.20;99.90
23267;DHT22;11802;53.160;8.214;2023-12-29T13:13:51;10.10;99.90
23267;DHT22;11802;53.160;8.214;2023-12-29T13:16:37;10.00;99.90
23267;DHT22;11802;53.160;8.214;2023-12-29T13:19:19;9.90;99.90
23267;DHT22;11802;53.160;8.214;2023-12-29T13:21:49;9.90;99.90
23267;DHT22;11802;53.160;8.214;2023-12-29T13:24:16;9.90;99.90
23267;DHT22;11802;53.160;8.214;2023-12-29T13:26:44;9.90;99.90
23267;DHT22;11802;53.160;8.214;2023-12-29T13:29:12;9.90;99.90
23267;DHT22;11802;53.160;8.214;2023-12-29T13:31:38;9.90;99.90
23267;DHT22;11802;53.160;8.214;2023-12-29T13:34:12;9.90;99.90
23267;DHT22;11802;53.160;8.214;2023-12-29T13:37:05;9.90;99.90
23267;DHT22;11802;53.160;8.214;2023-12-29T13:40:02;10.00;99.90
23267;DHT22;11802;53.160;8.214;2023-12-29T13:42:30;10.00;99.90
23267;DHT22;11802;53.160;8.214;2023-12-29T13:44:57;10.00;99.90
23267;DHT22;11802;53.160;8.214;2023-12-29T13:47:24;10.00;99.90
23267;DHT22;11802;53.160;8.214;2023-12-29T13:49:51;9.90;99.90
23267;DHT22;11802;53.160;8.214;2023-12-29T13:52:17;9.90;99.90
23267;DHT22;11802;53.160;8.214;2023-12-29T13:54:44;10.00;99.90
23267;DHT22;11802;53.160;8.214;2023-12-29T13:57:10;9.90;99.90
23267;DHT22;11802;53.160;8.214;2023-12-29T13:59:36;9.90;99.90
23267;DHT22;11802;53.160;8.214;2023-12-29T14:02:27;9.90;99.90
23267;DHT22;11802;53.160;8.214;2023-12-29T14:05:23;9.90;99.90
23267;DHT22;11802;53.160;8.214;2023-12-29T14:10:30;9.80;90.30
23267;DHT22;11802;53.160;8.214;2023-12-29T14:13:05;9.70;81.20
23267;DHT22;11802;53.160;8.214;2023-12-29T14:15:44;9.70;83.50
23267;DHT22;11802;53.160;8.214;2023-12-29T14:20:41;9.50;90.30
23267;DHT22;11802;53.160;8.214;2023-12-29T14:23:07;9.50;34.50
23267;DHT22;11802;53.160;8.214;2023-12-29T14:25:36;9.40;81.20
23267;DHT22;11802;53.160;8.214;2023-12-29T14:28:03;9.30;67.40
23267;DHT22;11802;53.160;8.214;2023-12-29T14:30:29;9.30;98.10
23267;DHT22;11802;53.160;8.214;2023-12-29T14:32:57;9.30;99.90
23267;DHT22;11802;53.160;8.214;2023-12-29T14:35:23;9.30;99.90
23267;DHT22;11802;53.160;8.214;2023-12-29T14:37:49;9.30;99.80
23267;DHT22;11802;53.160;8.214;2023-12-29T14:40:15;9.30;99.90
23267;DHT22;11802;53.160;8.214;2023-12-29T14:42:40;9.30;99.90
23267;DHT22;11802;53.160;8.214;2023-12-29T14:45:07;9.30;99.90
23267;DHT22;11802;53.160;8.214;2023-12-29T14:47:33;9.30;99.90
23267;DHT22;11802;53.160;8.214;2023-12-29T14:49:59;9.30;99.90
23267;DHT22;11802;53.160;8.214;2023-12-29T14:52:25;9.20;96.70
23267;DHT22;11802;53.160;8.214;2023-12-29T14:54:51;9.20;96.10
23267;DHT22;11802;53.160;8.214;2023-12-29T14:57:17;9.20;99.90
23267;DHT22;11802;53.160;8.214;2023-12-29T14:59:42;9.10;92.50
23267;DHT22;11802;53.160;8.214;2023-12-29T15:02:09;9.10;83.80
23267;DHT22;11802;53.160;8.214;2023-12-29T15:04:35;9.00;94.10
23267;DHT22;11802;53.160;8.214;2023-12-29T15:07:01;8.90;94.30
23267;DHT22;11802;53.160;8.214;2023-12-29T15:09:27;8.90;94.10
23267;DHT22;11802;53.160;8.214;2023-12-29T15:11:53;8.90;99.90
23267;DHT22;11802;53.160;8.214;2023-12-29T15:14:19;8.80;99.90
23267;DHT22;11802;53.160;8.214;2023-12-29T15:16:45;8.80;99.90
23267;DHT22;11802;53.160;8.214;2023-12-29T15:19:11;8.80;99.90
23267;DHT22;11802;53.160;8.214;2023-12-29T15:21:38;8.70;99.90
23267;DHT22;11802;53.160;8.214;2023-12-29T15:24:04;8.70;99.90
23267;DHT22;11802;53.160;8.214;2023-12-29T15:26:30;8.70;99.90
23267;DHT22;11802;53.160;8.214;2023-12-29T15:28:55;8.70;99.90
23267;DHT22;11802;53.160;8.214;2023-12-29T15:31:25;8.70;99.90
23267;DHT22;11802;53.160;8.214;2023-12-29T15:33:51;8.70;99.90
23267;DHT22;11802;53.160;8.214;2023-12-29T15:36:18;8.60;99.90
23267;DHT22;11802;53.160;8.214;2023-12-29T15:38:49;8.60;99.90
23267;DHT22;11802;53.160;8.214;2023-12-29T15:41:15;8.60;99.90
23267;DHT22;11802;53.160;8.214;2023-12-29T15:43:40;8.50;99.90
23267;DHT22;11802;53.160;8.214;2023-12-29T15:46:13;8.50;99.90
23267;DHT22;11802;53.160;8.214;2023-12-29T15:48:39;8.60;99.90
23267;DHT22;11802;53.160;8.214;2023-12-29T15:51:06;8.60;99.90
23267;DHT22;11802;53.160;8.214;2023-12-29T15:53:32;8.70;99.90
23267;DHT22;11802;53.160;8.214;2023-12-29T15:55:58;8.60;99.90
23267;DHT22;11802;53.160;8.214;2023-12-29T15:58:24;8.60;99.90
23267;DHT22;11802;53.160;8.214;2023-12-29T16:00:50;8.60;99.90
23267;DHT22;11802;53.160;8.214;2023-12-29T16:03:15;8.60;99.90
23267;DHT22;11802;53.160;8.214;2023-12-29T16:05:41;8.60;99.90
23267;DHT22;11802;53.160;8.214;2023-12-29T16:08:07;8.50;99.90